Airport Name : Presidente Juscelino Kubitschek

Other Name : Brasilia

ICAO : SBBR

IATA : BSB

FAA :

Latitude : -15.8711

Longitude : -47.918625

Country : Brazil

Local Date and Time : 1/22/2018 2:04:00 PM

 

TAF (Terminal Aerodrome Forecast)

TAF SBBR 221600Z 2218/2318 09010KT 9999 SCT040 TX31/2219Z TN19/2308Z FM222200 10005KT CAVOK FM231400 06015KT 9999 SCT030 RMK PDF

 

METAR (METeorological Aerodrome Report)

SBBR 221600Z 06009KT 040V130 9999 SCT035 30/10 Q1016

SBBR 221500Z 06012KT 9999 FEW030 30/11 Q1017

SBBR 221400Z 07013KT CAVOK 29/12 Q1018

SBBR 221300Z 06013KT CAVOK 27/13 Q1018